ESOW/VST METAR and TAF weather

Enter ICAO airport designator
Station Type Date Time Source
ESOW METAR 2019/12/06 03:50 UTC NOAA

ESOW 060350Z AUTO 20013KT 7000 -RA FEW008/// SCT011/// BKN013/// 05/03 Q0986


Station Type Date Time Source
ESOW Decoded METAR 2019/12/06 03:50 UTC NOAA

Vasteras / Hasslo, Sweden (ESOW) 59-35N 016-38E 31M
Dec 05, 2019 - 10:50 PM EST / 2019.12.06 0350 UTC
Wind: from the SSW (200 degrees) at 15 MPH (13 KT):0
Visibility: 4 mile(s):0
Sky conditions: mostly cloudy
Weather: light rain
Temperature: 41 F (5 C)
Dew Point: 37 F (3 C)
Relative Humidity: 86%
Pressure (altimeter): 29.12 in. Hg (0986 hPa)
ob: ESOW 060350Z AUTO 20013KT 7000 -RA FEW008/// SCT011/// BKN013/// 05/03 Q0986
cycle: 4

Station Type Date Time Source
ESOW TAF 2018/11/18 12:33 UTC NOAA

TAF ESOW 181130Z 1812/1914 02015KT 9999 BKN020
TEMPO 1812/1814 02015G25KT

Example: see airport list